Weather observations for the past three days for
Greater Portsmouth Regional Airport
Metric (Imperial)
Date Time (edt) Wind (kph) Vis. (km) Weather Sky Cond. Temperature (ºC) Relative Humidity Wind Chill (°C) Heat Index (°C) Pressure Precipitation (cm)
Air Dwpt 6 hour altimeter (cm) sea level (mb) 1 hr 3 hr 6 hr
Max. Min.
01 19:55 W 4 16.09 Fair CLR 29 22 35 29.5 66% 32 76.3 0.0
01 19:35 W 4 16.09 Fair CLR 31 22 59% 35 76.3 0.0
01 19:15 NW 4 16.09 Fair CLR 33 21 49% 36 76.3 0.0
01 18:55 Vrbl 7 16.09 Fair CLR 33 20 46% 35 76.3 0.0
01 18:35 W 11 16.09 Fair CLR 34 20 44% 36 76.3 0.0
01 18:15 Vrbl 7 16.09 Fair CLR 34 21 47% 37 76.3 0.0
01 17:55 S 9 16.09 Fair CLR 34 20 44% 36 76.3 0.0
01 17:36 Vrbl 4 16.09 Fair CLR 34 20 44% 36 76.3 0.0
01 17:15 Vrbl 7 16.09 Fair CLR 34 20 44% 36 76.3 0.0
01 16:55 Vrbl 7 16.09 A Few Clouds FEW060 34 21 47% 37 76.33 0.0
01 16:35 S 9 16.09 Partly Cloudy SCT060 34 20 44% 36 76.33 0.0
01 16:15 S 11 16.09 A Few Clouds FEW060 34 20 44% 36 76.33 0.0
01 15:55 Vrbl 9 16.09 A Few Clouds FEW060 34 21 47% 37 76.35 0.0
01 15:35 S 11 16.09 Partly Cloudy SCT060 34 21 47% 37 76.35 0.0
01 15:15 NW 9 16.09 A Few Clouds FEW060 34 20 44% 36 76.38 0.0
01 14:55 Vrbl 11 16.09 A Few Clouds FEW050 34 21 47% 37 76.38 0.0
01 14:35 Vrbl 9 16.09 A Few Clouds FEW050 34 21 47% 37 76.4 0.0
01 14:15 Vrbl 6 16.09 Fair CLR 33 21 49% 36 76.4 0.0
01 13:55 W 11 16.09 Fair CLR 33 21 33.6 21.1 49% 36 76.43 0.0
01 13:35 NW 13 16.09 Partly Cloudy SCT049 33 21 49% 36 76.45 0.0
01 13:15 Vrbl 9 16.09 Partly Cloudy SCT049 33 21 49% 36 76.45 0.0
01 12:55 NW 15 16.09 A Few Clouds FEW047 33 22 52% 37 76.48 0.0
01 12:35 Vrbl 7 16.09 A Few Clouds FEW046 33 23 56% 38 76.48 0.0
01 12:15 Vrbl 6 16.09 Fair CLR 32 23 59% 37 76.48 0.0
01 11:55 W 13 G 30 16.09 Fair CLR 32 22 55% 36 76.48 0.0
01 11:35 NW 15 16.09 Fair CLR 31 23 62% 35 76.45 0.0
01 11:15 Vrbl 7 16.09 Fair CLR 31 24 66% 37 76.45 0.0
01 10:55 Vrbl 2 16.09 Fair CLR 30 24 70% 35 76.48 0.0
01 10:35 Vrbl 6 16.09 Light Rain CLR 30 26 79% 37 76.48 0.0
01 10:15 SE 9 16.09 Fair CLR 28 26 89% 34 76.48 0.0
01 09:55 SE 7 16.09 Fair CLR 27 25 89% 31 76.48 0.0
01 09:35 S 9 16.09 Fair CLR 25 25 100% 25 76.48 0.0
01 09:10 SE 7 16.09 Fair CLR 24 24 100% 23 76.48 0.0
01 08:55 SE 9 11.27 A Few Clouds FEW001 23 23 100% 76.48 0.0
01 08:35 S 7 4.02 Fog/Mist BKN001 22 22 100% 76.5 0.0
01 08:15 SE 7 0.40 Fog OVC001 22 22 100% 76.5 0.0
01 07:55 S 7 0.24 Fog OVC001 21 21 22.5 20.6 100% 76.48 0.0
01 07:35 S 4 0.24 Fog OVC001 21 21 100% 76.48 0.0
01 07:15 S 6 0.24 Fog OVC001 21 21 100% 76.45 0.0
01 06:55 S 4 0.00 Mostly Cloudy BKN001 0 0 0% 76.43 0.0
01 06:35 S 4 0.24 Fog OVC001 21 21 100% 76.43 0.0
01 06:15 S 6 0.24 Fog OVC001 21 21 100% 76.4 0.0
01 05:55 S 6 0.24 Overcast OVC001 0 0 0% 76.4 0.0
01 05:35 S 4 0.24 Fog OVC001 21 21 100% 76.4 0.0
01 05:15 S 4 0.24 Fog BKN001 21 21 100% 76.38 0.0
01 04:55 S 4 0.24 Fog VV000 21 21 100% 76.38 0.0
01 04:35 S 2 0.24 Fog BKN001 22 22 100% 76.38 0.0
01 04:15 SE 2 0.24 Fog BKN001 22 22 100% 76.38 0.0
01 03:55 E 2 1.61 Fog/Mist CLR 22 22 100% 76.38 0.0
01 03:35 S 2 4.02 Fog/Mist CLR 22 22 100% 76.35 0.0
01 03:15 Calm 1.61 Fog/Mist SCT002 22 22 100% 76.35 0.0
01 02:55 SW 2 1.21 Fog/Mist BKN002 22 22 100% 76.35 0.0
01 02:36 SW 2 1.21 Fog/Mist VV005 22 22 100% 76.35 0.0
01 02:15 S 4 2.41 Fog/Mist SCT001 22 22 100% 76.35 0.0
01 01:54 S 11 3.22 Fog/Mist SCT001 22 22 28.2 22.1 100% 76.33 0.0
01 01:37 S 7 0.24 Fog BKN001 22 22 100% 76.35 0.0
01 01:15 S 7 4.02 Fog/Mist SCT001 22 22 100% 76.38 0.0
01 00:55 S 7 2.41 Fog/Mist BKN001 22 22 100% 76.38 0.0
01 00:35 S 6 2.82 Fog/Mist BKN001 22 22 100% 76.4 0.0
01 00:15 S 2 4.83 Fog/Mist FEW001 23 23 100% 76.4 0.0
31 23:55 S 4 6.44 Fog/Mist CLR 23 23 100% 76.4 0.0
31 23:35 S 4 11.27 Fog/Mist CLR 23 23 100% 76.4 0.0
31 23:15 S 4 11.27 A Few Clouds FEW046 23 23 100% 76.4 0.0
31 22:55 S 2 16.09 Partly Cloudy SCT046 24 24 100% 23 76.43 0.0
31 22:35 Vrbl 4 16.09 Fair CLR 24 24 100% 23 76.43 0.0
31 22:15 S 6 16.09 A Few Clouds FEW050 24 24 100% 23 76.4 0.0
31 21:55 W 2 16.09 A Few Clouds FEW050 25 25 100% 25 76.43 0.0
31 21:35 Calm 16.09 Fair CLR 26 25 94% 28 76.4 0.0
31 21:15 S 2 16.09 Fair CLR 26 25 94% 28 76.38 0.0
31 20:55 NW 2 16.09 Fair CLR 27 25 89% 31 76.35 0.0
31 20:35 W 2 16.09 Fair CLR 27 26 94% 31 76.35 0.0
31 20:15 Vrbl 4 16.09 Fair CLR 28 26 89% 34 76.33 0.0
31 19:35 S 6 16.09 Fair CLR 28 26 89% 34 76.33 0.0
31 19:15 S 4 16.09 Fair CLR 30 24 70% 35 76.3 0.0
31 18:55 SW 2 16.09 Fair CLR 31 23 62% 35 76.33 0.0
31 18:35 Vrbl 4 16.09 Fair CLR 32 23 59% 37 76.33 0.0
31 18:13 Vrbl 2 16.09 Fair CLR 32 23 59% 37 76.33 0.0
31 17:55 Vrbl 6 16.09 Fair CLR 32 22 55% 36 76.35 0.0
31 17:35 W 6 16.09 Fair CLR 32 21 52% 35 76.35 0.0
31 17:15 Vrbl 4 16.09 Fair CLR 33 21 49% 36 76.38 0.0
31 16:55 W 11 16.09 A Few Clouds FEW060 33 20 46% 35 76.38 0.0
31 16:35 Vrbl 7 16.09 A Few Clouds FEW060 34 21 47% 37 76.38 0.0
31 16:11 Vrbl 9 16.09 A Few Clouds FEW060 FEW070 FEW090 33 20 46% 35 76.4 0.0
31 15:55 Vrbl 9 16.09 A Few Clouds FEW070 FEW090 33 21 49% 36 76.4 0.0
31 15:34 Vrbl 4 16.09 Partly Cloudy FEW049 SCT070 SCT120 31 25 70% 38 76.43 0.0
31 15:15 Vrbl 9 16.09 Partly Cloudy SCT049 SCT060 SCT120 33 22 52% 37 76.45 0.0
31 14:55 Vrbl 9 16.09 A Few Clouds FEW049 FEW070 33 21 49% 36 76.45 0.0
31 14:36 W 17 G 26 16.09 Partly Cloudy FEW049 SCT070 SCT090 33 22 52% 37 76.45 0.0
31 14:14 Vrbl 9 16.09 Fair CLR 34 22 50% 38 76.48 0.0
31 13:56 W 13 16.09 A Few Clouds FEW048 FEW050 33 22 52% 37 76.48 0.0
31 13:34 Vrbl 9 16.09 Fair CLR 33 22 52% 37 76.5 0.0
31 13:16 W 13 16.09 Fair CLR 32 22 55% 36 76.5 0.0
31 12:56 NW 11 16.09 Fair CLR 32 22 55% 36 76.5 0.0
31 12:35 Vrbl 4 16.09 Fair CLR 31 26 75% 39 76.53 0.0
31 12:14 SE 11 16.09 Fair CLR 30 25 75% 36 76.53 0.0
31 11:54 SE 11 16.09 Fair CLR 29 25 79% 35 76.53 0.0
31 11:35 SE 11 16.09 Fair CLR 28 25 84% 33 76.53 0.0
31 11:15 SE 11 16.09 Fair CLR 27 25 89% 31 76.53 0.0
31 10:55 S 9 16.09 Fair CLR 25 25 100% 25 76.53 0.0
31 10:35 S 9 16.09 Fair CLR 24 24 100% 23 76.53 0.0
31 10:13 SE 6 16.09 Fair CLR 24 24 100% 23 76.53 0.0
31 09:55 SE 7 14.48 Fair CLR 23 23 100% 76.53 0.0
31 09:35 S 7 9.66 Fog/Mist CLR 22 22 100% 76.53 0.0
31 09:15 S 6 4.83 Fog/Mist CLR 22 22 100% 76.53 0.0
31 08:55 S 7 4.83 Fog/Mist FEW070 22 21 94% 76.53 0.0
31 08:35 S 4 4.02 Fog/Mist SCT001 BKN070 21 21 100% 76.53 0.0
31 08:15 S 4 1.21 Fog/Mist OVC001 21 21 100% 76.5 0.0
31 07:56 S 4 0.80 Fog OVC001 21 21 100% 76.5 0.0
31 07:35 S 4 0.24 Fog OVC001 21 21 100% 76.48 0.0
31 07:15 S 4 0.24 Fog OVC001 21 21 100% 76.48 0.0
31 06:55 S 6 0.80 Fog OVC001 21 21 100% 76.45 0.0
31 06:37 SE 2 3.22 Fog/Mist OVC001 21 20 94% 76.45 0.0
31 06:16 Calm 0.80 Fog OVC001 21 21 100% 76.45 0.0
31 05:55 SE 2 0.40 Fog OVC001 20 20 100% 76.43 0.0
31 05:35 SE 6 0.24 Fog OVC001 20 20 100% 76.43 0.0
31 05:15 S 6 0.24 Fog OVC001 20 20 100% 76.43 0.0
31 04:55 S 4 0.24 Fog OVC001 21 20 94% 76.45 0.0
31 04:35 S 2 0.24 Fog OVC001 21 21 100% 76.43 0.0
31 04:15 Calm 0.24 Fog OVC001 21 21 100% 76.43 0.0
31 03:55 SE 2 0.24 Fog OVC001 21 21 100% 76.43 0.0
31 03:35 S 4 0.24 Fog OVC001 21 21 100% 76.43 0.0
31 03:15 Vrbl 2 0.24 Fog OVC001 21 21 100% 76.43 0.0
31 02:55 Calm 0.24 Fog OVC001 21 21 100% 76.45 0.0
31 02:35 SE 2 0.80 Fog OVC001 21 21 100% 76.43 0.0
31 02:15 SE 2 6.44 Fog/Mist OVC001 21 21 100% 76.45 0.0
31 01:55 S 2 0.80 Fog BKN001 21 21 27.6 21.1 100% 76.45 0.0
31 01:35 Calm 0.80 Fog VV005 21 21 100% 76.45 0.0
31 01:15 SE 4 11.27 Fog/Mist CLR 21 21 100% 76.45 0.0
31 00:55 S 2 8.05 Fog/Mist CLR 21 21 100% 76.45 0.0
31 00:35 SE 2 14.48 Fair CLR 22 22 100% 76.45 0.0
31 00:15 S 2 11.27 Fog/Mist CLR 22 22 100% 76.45 0.0
30 23:35 Calm 16.09 Fair CLR 22 22 100% 76.48 0.0
30 23:15 Calm 16.09 Fair CLR 23 23 100% 76.48 0.0
30 22:55 N 2 16.09 Fair CLR 24 24 100% 23 76.48 0.0
30 22:36 N 4 16.09 Fair CLR 24 24 100% 23 76.48 0.0
30 22:16 S 4 16.09 Fair CLR 24 24 100% 23 76.48 0.0
30 21:55 SE 4 16.09 Fair CLR 25 24 94% 26 76.45 0.0
30 21:35 Calm 16.09 Fair CLR 25 24 94% 26 76.45 0.0
30 21:16 S 6 16.09 Fair CLR 24 23 94% 23 76.43 0.0
30 20:55 Calm 16.09 Fair CLR 25 24 94% 26 76.43 0.0
30 20:35 N 2 16.09 Fair CLR 26 24 89% 28 76.4 0.0
30 20:15 S 2 16.09 Fair CLR 26 24 89% 28 76.38 0.0
30 19:55 W 2 16.09 Fair CLR 27 24 33.8 27.4 84% 30 76.38 0.0
30 19:35 S 4 16.09 Fair CLR 29 23 70% 33 76.35 0.0
30 19:15 SW 4 16.09 Fair CLR 30 21 59% 33 76.35 0.0
30 18:55 Vrbl 4 16.09 Fair CLR 31 21 55% 34 76.38 0.0
30 18:35 Vrbl 4 16.09 Fair CLR 31 20 52% 33 76.35 0.0
30 18:15 Vrbl 9 16.09 Fair CLR 31 20 52% 33 76.33 0.0
30 17:55 S 9 16.09 Fair CLR 32 20 49% 34 76.33 0.0
30 17:35 Vrbl 4 16.09 Fair CLR 31 19 49% 32 76.35 0.0
30 17:15 Vrbl 6 16.09 Fair CLR 32 19 46% 33 76.38 0.0
30 16:55 SW 9 16.09 Fair CLR 33 19 44% 35 76.38 0.0
30 16:35 NW 11 16.09 A Few Clouds FEW060 FEW075 FEW110 32 20 49% 34 76.4 0.0
30 16:15 W 15 16.09 Partly Cloudy SCT060 32 20 49% 34 76.43 0.0
30 15:55 Vrbl 4 16.09 A Few Clouds FEW060 33 19 44% 35 76.43 0.0
30 15:35 Vrbl 9 16.09 A Few Clouds FEW060 32 19 46% 33 76.45 0.0
30 15:15 Vrbl 7 16.09 A Few Clouds FEW060 33 20 46% 35 76.45 0.0
30 14:55 NW 17 G 26 16.09 Partly Cloudy SCT060 34 20 44% 36 76.48 0.0
30 14:35 Vrbl 4 16.09 Partly Cloudy SCT080 SCT100 32 21 52% 35 76.5 0.0
30 14:15 Vrbl 11 16.09 Mostly Cloudy FEW050 BKN070 BKN100 31 21 55% 34 76.53 0.0
30 13:55 W 15 16.09 A Few Clouds FEW050 FEW080 32 20 32.9 17.6 49% 34 76.53 0.0
30 13:35 Vrbl 7 16.09 A Few Clouds FEW049 33 21 49% 36 76.56 0.0
30 13:15 Vrbl 9 16.09 Fair CLR 32 23 59% 37 76.56 0.0
30 12:55 Vrbl 4 16.09 Fair CLR 31 24 66% 37 76.58 0.0
30 12:31 Vrbl 6 16.09 Fair CLR 30 25 75% 36 76.58 0.0
30 12:15 S 7 16.09 Fair CLR 30 24 70% 35 76.58 0.0
30 11:55 Vrbl 7 16.09 Fair CLR 29 24 74% 34 76.61 0.0
30 11:35 Vrbl 9 16.09 Fair CLR 29 24 74% 34 76.61 0.0
30 11:15 Vrbl 7 16.09 Fair CLR 28 24 79% 32 76.61 0.0
30 10:55 Vrbl 7 16.09 Fair CLR 27 24 84% 30 76.58 0.0
30 10:35 SE 13 16.09 Fair CLR 25 23 89% 26 76.58 0.0
30 10:15 SE 11 16.09 Fair CLR 24 23 94% 23 76.58 0.0
30 09:55 S 9 16.09 A Few Clouds FEW070 23 22 94% 76.58 0.0
30 09:35 SE 9 16.09 A Few Clouds FEW070 22 22 100% 76.58 0.0
30 09:15 SE 7 16.09 A Few Clouds FEW070 21 21 100% 76.58 0.0
30 08:55 SE 4 16.09 Partly Cloudy SCT070 20 20 100% 76.58 0.0
30 08:35 S 6 16.09 Mostly Cloudy BKN070 19 19 100% 76.58 0.0
30 08:15 S 4 11.27 Fog/Mist SCT070 18 18 100% 76.56 0.0
30 07:56 Calm 11.27 A Few Clouds FEW070 18 18 100% 76.56 0.0
30 07:35 SE 4 9.66 Fog/Mist CLR 18 18 100% 76.56 0.0
30 07:15 S 4 12.87 Fair CLR 18 18 100% 76.53 0.0
30 06:55 Calm 11.27 Fog/Mist CLR 18 18 100% 76.53 0.0
30 06:35 S 6 8.05 Fog/Mist CLR 18 18 100% 76.53 0.0
30 06:15 Calm 16.09 Fair CLR 18 18 100% 76.53 0.0
30 05:55 W 2 12.87 Fair CLR 18 18 100% 76.53 0.0
30 05:35 N 2 14.48 Fair CLR 18 18 100% 76.53 0.0
30 05:15 N 4 16.09 Fair CLR 18 18 100% 76.53 0.0
30 04:55 SE 2 12.87 Fair CLR 17 17 100% 76.53 0.0
30 04:35 S 2 12.87 Fair CLR 17 17 100% 76.53 0.0
30 04:15 N 4 16.09 Fair CLR 17 17 100% 76.53 0.0
30 03:55 N 6 16.09 Fair CLR 17 17 100% 76.53 0.0
30 03:35 N 4 16.09 Fair CLR 17 17 100% 76.53 0.0
30 03:15 N 6 14.48 Fair CLR 17 17 100% 76.53 0.0
30 02:55 N 4 12.87 Fair CLR 18 18 100% 76.53 0.0
30 02:35 N 4 11.27 Fog/Mist CLR 18 18 100% 76.56 0.0
30 02:15 Calm 6.44 Fog/Mist CLR 18 18 100% 76.56 0.0
30 01:55 Calm 6.44 Fog/Mist CLR 18 18 25.1 18.2 100% 76.56 0.0
30 01:35 Vrbl 2 12.87 Fair CLR 18 18 100% 76.56 0.0
30 01:15 Vrbl 2 14.48 Fair CLR 19 19 100% 76.56 0.0
30 00:55 N 4 16.09 Fair CLR 19 19 100% 76.56 0.0
30 00:35 NW 2 16.09 Fair CLR 19 19 100% 76.56 0.0
30 00:15 N 4 16.09 Fair CLR 19 19 100% 76.56 0.0
29 23:55 N 6 16.09 Fair CLR 20 20 100% 76.56 0.0
29 23:35 N 2 16.09 Fair CLR 20 20 100% 76.56 0.0
29 23:15 N 4 16.09 Fair CLR 20 20 100% 76.56 0.0
29 22:55 N 4 16.09 Fair CLR 20 20 100% 76.53 0.0
29 22:35 N 4 16.09 Fair CLR 20 20 100% 76.53 0.0
29 22:15 N 4 16.09 Fair CLR 21 21 100% 76.53 0.0
29 21:55 N 6 16.09 Fair CLR 21 21 100% 76.53 0.0
29 21:35 N 2 16.09 Fair CLR 22 21 94% 76.5 0.0
29 21:15 SE 2 16.09 Fair CLR 22 21 94% 76.5 0.0
29 20:55 NW 2 16.09 Fair CLR 22 21 94% 76.5 0.0
29 20:35 NW 4 16.09 Fair CLR 24 21 83% 24 76.5 0.0
Date Time (edt) Wind (kph) Vis. (km) Weather Sky Cond. Air Dwpt Max. Min. Relative Humidity Wind Chill (°C) Heat Index (°C) altimeter (cm) sea level (mb) 1 hr 3 hr 6 hr
6 hour
Temperature (ºC) Pressure Precipitation (cm)